X  Close Metar Aviation Weather Data     KSEA Seattle–Tacoma International Airport
Temperature
79°F Temperature
50°F Dewpoint
37% Humidity



Wind
7 MPH
11 KM/H
3 M/S
6 KTS



360°
North
Current Conditions

Clear Clear
Pressure 1014.9 (hPa) - 29.97 (inHg)
Visibility 10 (mile) - 16.1 (km)
Airport
Airport-code KSEA

Location: Seattle–Tacoma International Airport
Distance: 14 (mi)

Metar:
KSEA 140353Z 36006KT 10SM CLR 26/10 A2997 RMK AO2 SLP153 T02610100

Time: 07-14-2024 03:53 PDT